sensor_id;sensor_type;location;lat;lon;timestamp;pressure;altitude;pressure_sealevel;temperature;humidity
2785;BME280;57944;48.722;9.316;2024-03-22T00:01:47;98764.13;;;6.09;100.00
2785;BME280;57944;48.722;9.316;2024-03-22T00:04:15;98767.66;;;5.98;100.00
2785;BME280;57944;48.722;9.316;2024-03-22T00:06:42;98762.09;;;5.94;100.00
2785;BME280;57944;48.722;9.316;2024-03-22T00:09:10;98763.13;;;5.92;100.00
2785;BME280;57944;48.722;9.316;2024-03-22T00:11:40;98755.41;;;5.93;100.00
2785;BME280;57944;48.722;9.316;2024-03-22T00:14:07;98755.41;;;5.93;100.00
2785;BME280;57944;48.722;9.316;2024-03-22T00:16:34;98752.75;;;5.95;100.00
2785;BME280;57944;48.722;9.316;2024-03-22T00:19:02;98750.19;;;6.04;100.00
2785;BME280;57944;48.722;9.316;2024-03-22T00:21:29;98748.19;;;5.98;100.00
2785;BME280;57944;48.722;9.316;2024-03-22T00:23:56;98747.00;;;5.93;100.00
2785;BME280;57944;48.722;9.316;2024-03-22T00:26:23;98749.53;;;5.93;100.00
2785;BME280;57944;48.722;9.316;2024-03-22T00:28:53;98745.34;;;5.83;100.00
2785;BME280;57944;48.722;9.316;2024-03-22T00:31:19;98751.75;;;5.78;100.00
2785;BME280;57944;48.722;9.316;2024-03-22T00:33:46;98746.69;;;5.78;100.00
2785;BME280;57944;48.722;9.316;2024-03-22T00:36:13;98751.28;;;5.65;100.00
2785;BME280;57944;48.722;9.316;2024-03-22T00:38:40;98749.72;;;5.64;100.00
2785;BME280;57944;48.722;9.316;2024-03-22T00:41:07;98746.09;;;5.66;100.00
2785;BME280;57944;48.722;9.316;2024-03-22T00:43:34;98750.63;;;5.63;100.00
2785;BME280;57944;48.722;9.316;2024-03-22T00:46:04;98736.69;;;5.58;100.00
2785;BME280;57944;48.722;9.316;2024-03-22T00:48:31;98739.13;;;5.50;100.00
2785;BME280;57944;48.722;9.316;2024-03-22T00:50:58;98736.22;;;5.45;100.00
2785;BME280;57944;48.722;9.316;2024-03-22T00:53:25;98727.63;;;5.38;100.00
2785;BME280;57944;48.722;9.316;2024-03-22T00:55:52;98734.94;;;5.31;100.00
2785;BME280;57944;48.722;9.316;2024-03-22T00:58:19;98727.75;;;5.36;100.00
2785;BME280;57944;48.722;9.316;2024-03-22T01:00:46;98714.41;;;5.44;100.00
2785;BME280;57944;48.722;9.316;2024-03-22T01:03:15;98717.72;;;5.45;100.00
2785;BME280;57944;48.722;9.316;2024-03-22T01:05:42;98714.69;;;5.41;100.00
2785;BME280;57944;48.722;9.316;2024-03-22T01:08:10;98713.16;;;5.30;100.00
2785;BME280;57944;48.722;9.316;2024-03-22T01:10:36;98709.44;;;5.25;100.00
2785;BME280;57944;48.722;9.316;2024-03-22T01:13:03;98704.38;;;5.25;100.00
2785;BME280;57944;48.722;9.316;2024-03-22T01:15:30;98705.97;;;5.26;100.00
2785;BME280;57944;48.722;9.316;2024-03-22T01:17:57;98716.25;;;5.24;100.00
2785;BME280;57944;48.722;9.316;2024-03-22T01:20:27;98706.91;;;5.25;100.00
2785;BME280;57944;48.722;9.316;2024-03-22T01:22:54;98703.31;;;5.27;100.00
2785;BME280;57944;48.722;9.316;2024-03-22T01:25:21;98700.41;;;5.22;100.00
2785;BME280;57944;48.722;9.316;2024-03-22T01:27:48;98695.34;;;5.22;100.00
2785;BME280;57944;48.722;9.316;2024-03-22T01:30:15;98692.16;;;5.20;100.00
2785;BME280;57944;48.722;9.316;2024-03-22T01:32:42;98694.31;;;5.15;100.00
2785;BME280;57944;48.722;9.316;2024-03-22T01:35:09;98692.34;;;5.09;100.00
2785;BME280;57944;48.722;9.316;2024-03-22T01:37:38;98692.78;;;5.04;100.00
2785;BME280;57944;48.722;9.316;2024-03-22T01:40:07;98687.97;;;5.01;100.00
2785;BME280;57944;48.722;9.316;2024-03-22T01:42:34;98672.81;;;5.01;100.00
2785;BME280;57944;48.722;9.316;2024-03-22T01:45:01;98672.81;;;5.01;100.00
2785;BME280;57944;48.722;9.316;2024-03-22T01:47:28;98683.63;;;4.93;100.00
2785;BME280;57944;48.722;9.316;2024-03-22T01:49:55;98686.28;;;5.02;100.00
2785;BME280;57944;48.722;9.316;2024-03-22T01:52:23;98686.00;;;4.95;100.00
2785;BME280;57944;48.722;9.316;2024-03-22T01:54:52;98691.22;;;4.93;100.00
2785;BME280;57944;48.722;9.316;2024-03-22T01:57:20;98688.03;;;4.91;100.00
2785;BME280;57944;48.722;9.316;2024-03-22T01:59:48;98683.53;;;4.85;100.00
2785;BME280;57944;48.722;9.316;2024-03-22T02:02:16;98676.63;;;4.78;100.00
2785;BME280;57944;48.722;9.316;2024-03-22T02:04:43;98673.59;;;4.74;100.00
2785;BME280;57944;48.722;9.316;2024-03-22T02:07:10;98674.13;;;4.68;100.00
2785;BME280;57944;48.722;9.316;2024-03-22T02:09:37;98668.03;;;4.61;100.00
2785;BME280;57944;48.722;9.316;2024-03-22T02:12:08;98669.78;;;4.60;100.00
2785;BME280;57944;48.722;9.316;2024-03-22T02:14:35;98662.59;;;4.56;100.00
2785;BME280;57944;48.722;9.316;2024-03-22T02:17:02;98653.84;;;4.50;100.00
2785;BME280;57944;48.722;9.316;2024-03-22T02:19:29;98654.78;;;4.49;100.00
2785;BME280;57944;48.722;9.316;2024-03-22T02:21:55;98651.19;;;4.52;100.00
2785;BME280;57944;48.722;9.316;2024-03-22T02:24:25;98655.81;;;4.56;100.00
2785;BME280;57944;48.722;9.316;2024-03-22T02:26:52;98652.22;;;4.59;100.00
2785;BME280;57944;48.722;9.316;2024-03-22T02:29:19;98651.56;;;4.66;100.00
2785;BME280;57944;48.722;9.316;2024-03-22T02:31:46;98649.44;;;4.62;100.00
2785;BME280;57944;48.722;9.316;2024-03-22T02:34:12;98647.69;;;4.62;100.00
2785;BME280;57944;48.722;9.316;2024-03-22T02:36:39;98650.50;;;4.59;100.00
2785;BME280;57944;48.722;9.316;2024-03-22T02:39:06;98646.16;;;4.52;100.00
2785;BME280;57944;48.722;9.316;2024-03-22T02:41:36;98640.28;;;4.51;100.00
2785;BME280;57944;48.722;9.316;2024-03-22T02:44:03;98643.25;;;4.46;100.00
2785;BME280;57944;48.722;9.316;2024-03-22T02:46:30;98643.75;;;4.50;100.00
2785;BME280;57944;48.722;9.316;2024-03-22T02:48:57;98642.97;;;4.50;100.00
2785;BME280;57944;48.722;9.316;2024-03-22T02:51:24;98644.03;;;4.47;100.00
2785;BME280;57944;48.722;9.316;2024-03-22T02:53:50;98646.81;;;4.44;100.00
2785;BME280;57944;48.722;9.316;2024-03-22T02:56:17;98641.78;;;4.44;100.00
2785;BME280;57944;48.722;9.316;2024-03-22T02:58:48;98635.78;;;4.45;100.00
2785;BME280;57944;48.722;9.316;2024-03-22T03:01:15;98633.00;;;4.48;100.00
2785;BME280;57944;48.722;9.316;2024-03-22T03:03:42;98631.13;;;4.50;100.00
2785;BME280;57944;48.722;9.316;2024-03-22T03:06:09;98623.28;;;4.53;100.00
2785;BME280;57944;48.722;9.316;2024-03-22T03:08:36;98623.28;;;4.53;100.00
2785;BME280;57944;48.722;9.316;2024-03-22T03:11:03;98609.19;;;4.60;100.00
2785;BME280;57944;48.722;9.316;2024-03-22T03:13:30;98602.44;;;4.51;100.00
2785;BME280;57944;48.722;9.316;2024-03-22T03:15:59;98616.78;;;4.51;100.00
2785;BME280;57944;48.722;9.316;2024-03-22T03:18:26;98620.38;;;4.48;100.00
2785;BME280;57944;48.722;9.316;2024-03-22T03:20:53;98617.97;;;4.56;100.00
2785;BME280;57944;48.722;9.316;2024-03-22T03:23:20;98613.56;;;4.58;100.00
2785;BME280;57944;48.722;9.316;2024-03-22T03:25:47;98609.56;;;4.65;100.00
2785;BME280;57944;48.722;9.316;2024-03-22T03:28:14;98605.03;;;4.69;100.00
2785;BME280;57944;48.722;9.316;2024-03-22T03:30:41;98613.41;;;4.69;100.00
2785;BME280;57944;48.722;9.316;2024-03-22T03:33:10;98611.25;;;4.75;100.00
2785;BME280;57944;48.722;9.316;2024-03-22T03:35:37;98614.63;;;4.65;100.00
2785;BME280;57944;48.722;9.316;2024-03-22T03:38:04;98608.91;;;4.63;100.00
2785;BME280;57944;48.722;9.316;2024-03-22T03:40:31;98600.41;;;4.64;100.00
2785;BME280;57944;48.722;9.316;2024-03-22T03:42:58;98598.56;;;4.57;100.00
2785;BME280;57944;48.722;9.316;2024-03-22T03:45:24;98593.00;;;4.53;100.00
2785;BME280;57944;48.722;9.316;2024-03-22T03:47:51;98602.06;;;4.46;100.00
2785;BME280;57944;48.722;9.316;2024-03-22T03:50:21;98599.16;;;4.41;100.00
2785;BME280;57944;48.722;9.316;2024-03-22T03:52:47;98596.63;;;4.41;100.00
2785;BME280;57944;48.722;9.316;2024-03-22T03:55:15;98595.84;;;4.31;100.00
2785;BME280;57944;48.722;9.316;2024-03-22T03:57:42;98588.72;;;4.16;100.00
2785;BME280;57944;48.722;9.316;2024-03-22T04:00:09;98589.41;;;3.99;100.00
2785;BME280;57944;48.722;9.316;2024-03-22T04:02:36;98598.94;;;3.95;100.00
2785;BME280;57944;48.722;9.316;2024-03-22T04:05:04;98592.06;;;3.88;100.00
2785;BME280;57944;48.722;9.316;2024-03-22T04:07:35;98599.63;;;3.88;100.00
2785;BME280;57944;48.722;9.316;2024-03-22T04:10:02;98597.13;;;3.88;100.00
2785;BME280;57944;48.722;9.316;2024-03-22T04:12:28;98600.81;;;3.84;100.00
2785;BME280;57944;48.722;9.316;2024-03-22T04:14:55;98604.81;;;3.86;100.00
2785;BME280;57944;48.722;9.316;2024-03-22T04:17:22;98594.31;;;3.91;100.00
2785;BME280;57944;48.722;9.316;2024-03-22T04:19:50;98589.41;;;3.99;100.00
2785;BME280;57944;48.722;9.316;2024-03-22T04:22:17;98591.53;;;3.94;100.00
2785;BME280;57944;48.722;9.316;2024-03-22T04:24:46;98585.94;;;4.00;100.00
2785;BME280;57944;48.722;9.316;2024-03-22T04:27:13;98598.28;;;4.03;100.00
2785;BME280;57944;48.722;9.316;2024-03-22T04:29:40;98590.72;;;4.03;100.00
2785;BME280;57944;48.722;9.316;2024-03-22T04:32:07;98591.13;;;4.08;100.00
2785;BME280;57944;48.722;9.316;2024-03-22T04:34:34;98586.19;;;4.16;100.00
2785;BME280;57944;48.722;9.316;2024-03-22T04:37:01;98592.81;;;4.27;100.00
2785;BME280;57944;48.722;9.316;2024-03-22T04:39:28;98590.13;;;4.29;100.00
2785;BME280;57944;48.722;9.316;2024-03-22T04:41:57;98584.19;;;4.30;100.00
2785;BME280;57944;48.722;9.316;2024-03-22T04:44:24;98597.06;;;4.27;100.00
2785;BME280;57944;48.722;9.316;2024-03-22T04:46:51;98594.13;;;4.31;100.00
2785;BME280;57944;48.722;9.316;2024-03-22T04:49:18;98600.22;;;4.38;100.00
2785;BME280;57944;48.722;9.316;2024-03-22T04:51:45;98607.13;;;4.46;100.00
2785;BME280;57944;48.722;9.316;2024-03-22T04:54:11;98604.03;;;4.52;100.00
2785;BME280;57944;48.722;9.316;2024-03-22T04:56:40;98607.59;;;4.59;100.00
2785;BME280;57944;48.722;9.316;2024-03-22T04:59:10;98601.56;;;4.70;100.00
2785;BME280;57944;48.722;9.316;2024-03-22T05:01:36;98610.31;;;4.76;100.00
2785;BME280;57944;48.722;9.316;2024-03-22T05:04:04;98600.47;;;4.82;100.00
2785;BME280;57944;48.722;9.316;2024-03-22T05:06:31;98608.16;;;4.90;100.00
2785;BME280;57944;48.722;9.316;2024-03-22T05:08:58;98615.34;;;4.85;100.00
2785;BME280;57944;48.722;9.316;2024-03-22T05:11:24;98602.16;;;4.91;100.00
2785;BME280;57944;48.722;9.316;2024-03-22T05:13:51;98603.44;;;4.96;100.00
2785;BME280;57944;48.722;9.316;2024-03-22T05:16:21;98600.66;;;4.99;100.00
2785;BME280;57944;48.722;9.316;2024-03-22T05:18:48;98595.47;;;5.00;100.00
2785;BME280;57944;48.722;9.316;2024-03-22T05:21:14;98600.22;;;5.03;100.00
2785;BME280;57944;48.722;9.316;2024-03-22T05:23:41;98594.09;;;5.06;100.00
2785;BME280;57944;48.722;9.316;2024-03-22T05:26:08;98600.72;;;5.07;100.00
2785;BME280;57944;48.722;9.316;2024-03-22T05:28:35;98591.94;;;5.11;100.00
2785;BME280;57944;48.722;9.316;2024-03-22T05:31:02;98586.09;;;5.10;100.00
2785;BME280;57944;48.722;9.316;2024-03-22T05:33:31;98583.13;;;5.15;100.00
2785;BME280;57944;48.722;9.316;2024-03-22T05:35:58;98578.63;;;5.19;100.00
2785;BME280;57944;48.722;9.316;2024-03-22T05:38:25;98587.50;;;5.23;100.00
2785;BME280;57944;48.722;9.316;2024-03-22T05:40:52;98586.81;;;5.21;100.00
2785;BME280;57944;48.722;9.316;2024-03-22T05:43:19;98584.66;;;5.26;100.00
2785;BME280;57944;48.722;9.316;2024-03-22T05:45:46;98586.00;;;5.30;100.00
2785;BME280;57944;48.722;9.316;2024-03-22T05:48:13;98586.50;;;5.33;100.00
2785;BME280;57944;48.722;9.316;2024-03-22T05:50:43;98576.44;;;5.59;100.00
2785;BME280;57944;48.722;9.316;2024-03-22T05:53:10;98569.28;;;5.73;100.00
2785;BME280;57944;48.722;9.316;2024-03-22T05:55:37;98564.00;;;5.84;100.00
2785;BME280;57944;48.722;9.316;2024-03-22T05:58:04;98563.84;;;6.03;100.00
2785;BME280;57944;48.722;9.316;2024-03-22T06:00:31;98561.72;;;6.17;100.00
2785;BME280;57944;48.722;9.316;2024-03-22T06:02:58;98561.78;;;6.25;100.00
2785;BME280;57944;48.722;9.316;2024-03-22T06:05:25;98574.50;;;6.33;100.00
2785;BME280;57944;48.722;9.316;2024-03-22T06:07:54;98564.06;;;6.36;100.00
2785;BME280;57944;48.722;9.316;2024-03-22T06:10:21;98556.13;;;6.31;100.00
2785;BME280;57944;48.722;9.316;2024-03-22T06:12:48;98561.03;;;6.33;100.00
2785;BME280;57944;48.722;9.316;2024-03-22T06:15:15;98561.91;;;6.23;100.00
2785;BME280;57944;48.722;9.316;2024-03-22T06:17:42;98554.63;;;6.20;100.00
2785;BME280;57944;48.722;9.316;2024-03-22T06:20:10;98555.72;;;6.18;100.00
2785;BME280;57944;48.722;9.316;2024-03-22T06:22:37;98556.38;;;6.20;100.00
2785;BME280;57944;48.722;9.316;2024-03-22T06:25:07;98549.66;;;6.37;100.00
2785;BME280;57944;48.722;9.316;2024-03-22T06:27:34;98558.81;;;6.64;100.00
2785;BME280;57944;48.722;9.316;2024-03-22T06:30:01;98554.28;;;6.84;100.00
2785;BME280;57944;48.722;9.316;2024-03-22T06:32:28;98557.03;;;7.07;100.00
2785;BME280;57944;48.722;9.316;2024-03-22T06:34:55;98556.75;;;7.26;100.00
2785;BME280;57944;48.722;9.316;2024-03-22T06:37:22;98560.59;;;7.55;100.00
2785;BME280;57944;48.722;9.316;2024-03-22T06:39:49;98560.09;;;8.17;100.00
2785;BME280;57944;48.722;9.316;2024-03-22T06:42:18;98556.03;;;8.55;100.00
2785;BME280;57944;48.722;9.316;2024-03-22T06:44:45;98549.53;;;8.92;100.00
2785;BME280;57944;48.722;9.316;2024-03-22T06:47:12;98557.03;;;9.39;100.00
2785;BME280;57944;48.722;9.316;2024-03-22T06:49:39;98560.25;;;9.56;100.00
2785;BME280;57944;48.722;9.316;2024-03-22T06:52:06;98561.69;;;9.74;100.00
2785;BME280;57944;48.722;9.316;2024-03-22T06:54:32;98562.25;;;9.84;100.00
2785;BME280;57944;48.722;9.316;2024-03-22T06:56:59;98551.09;;;9.85;100.00
2785;BME280;57944;48.722;9.316;2024-03-22T06:59:29;98552.22;;;10.35;100.00
2785;BME280;57944;48.722;9.316;2024-03-22T07:01:56;98554.03;;;10.86;100.00
2785;BME280;57944;48.722;9.316;2024-03-22T07:04:23;98554.09;;;11.29;100.00
2785;BME280;57944;48.722;9.316;2024-03-22T07:06:50;98561.66;;;11.87;100.00
2785;BME280;57944;48.722;9.316;2024-03-22T07:09:17;98556.44;;;12.29;100.00
2785;BME280;57944;48.722;9.316;2024-03-22T07:11:44;98558.25;;;12.84;100.00
2785;BME280;57944;48.722;9.316;2024-03-22T07:14:11;98555.19;;;13.22;100.00
2785;BME280;57944;48.722;9.316;2024-03-22T07:16:40;98552.50;;;13.70;100.00
2785;BME280;57944;48.722;9.316;2024-03-22T07:19:07;98552.09;;;13.93;100.00
2785;BME280;57944;48.722;9.316;2024-03-22T07:21:34;98548.59;;;14.59;100.00
2785;BME280;57944;48.722;9.316;2024-03-22T07:24:00;98536.41;;;14.99;100.00
2785;BME280;57944;48.722;9.316;2024-03-22T07:26:27;98541.25;;;15.39;100.00
2785;BME280;57944;48.722;9.316;2024-03-22T07:28:54;98552.41;;;15.83;100.00
2785;BME280;57944;48.722;9.316;2024-03-22T07:31:20;98546.78;;;15.93;100.00
2785;BME280;57944;48.722;9.316;2024-03-22T07:33:51;98541.06;;;16.46;100.00
2785;BME280;57944;48.722;9.316;2024-03-22T07:36:19;98541.69;;;16.60;98.60
2785;BME280;57944;48.722;9.316;2024-03-22T07:38:46;98527.16;;;17.02;90.22
2785;BME280;57944;48.722;9.316;2024-03-22T07:41:13;98525.53;;;17.43;72.55
2785;BME280;57944;48.722;9.316;2024-03-22T07:43:39;98528.34;;;18.12;64.97
2785;BME280;57944;48.722;9.316;2024-03-22T07:46:06;98520.66;;;18.81;62.61
2785;BME280;57944;48.722;9.316;2024-03-22T07:48:33;98519.06;;;19.42;57.70
2785;BME280;57944;48.722;9.316;2024-03-22T07:51:02;98525.09;;;19.65;55.76
2785;BME280;57944;48.722;9.316;2024-03-22T07:53:29;98522.22;;;19.45;55.90
2785;BME280;57944;48.722;9.316;2024-03-22T07:55:56;98521.25;;;20.06;53.02
2785;BME280;57944;48.722;9.316;2024-03-22T07:58:23;98522.13;;;20.56;52.33
2785;BME280;57944;48.722;9.316;2024-03-22T08:00:50;98516.31;;;20.71;51.05
2785;BME280;57944;48.722;9.316;2024-03-22T08:03:17;98516.31;;;21.03;49.84
2785;BME280;57944;48.722;9.316;2024-03-22T08:05:44;98518.88;;;21.62;49.50
2785;BME280;57944;48.722;9.316;2024-03-22T08:08:13;98519.22;;;22.29;47.44
2785;BME280;57944;48.722;9.316;2024-03-22T08:10:40;98516.44;;;21.93;47.10
2785;BME280;57944;48.722;9.316;2024-03-22T08:13:07;98510.63;;;21.71;48.46
2785;BME280;57944;48.722;9.316;2024-03-22T08:15:34;98514.09;;;22.49;47.03
2785;BME280;57944;48.722;9.316;2024-03-22T08:18:01;98504.28;;;23.23;45.38
2785;BME280;57944;48.722;9.316;2024-03-22T08:20:28;98511.06;;;23.09;45.04
2785;BME280;57944;48.722;9.316;2024-03-22T08:37:36;98492.63;;;22.06;47.13
2785;BME280;57944;48.722;9.316;2024-03-22T08:40:03;98487.16;;;23.02;46.76
2785;BME280;57944;48.722;9.316;2024-03-22T08:42:31;98485.75;;;24.41;42.76
2785;BME280;57944;48.722;9.316;2024-03-22T08:44:57;98476.53;;;25.75;41.68
2785;BME280;57944;48.722;9.316;2024-03-22T08:47:24;98481.38;;;26.30;39.86
2785;BME280;57944;48.722;9.316;2024-03-22T08:49:51;98475.06;;;26.69;39.91
2785;BME280;57944;48.722;9.316;2024-03-22T08:52:18;98471.09;;;26.90;38.83
2785;BME280;57944;48.722;9.316;2024-03-22T08:54:47;98463.91;;;25.82;41.23
2785;BME280;57944;48.722;9.316;2024-03-22T08:57:14;98466.94;;;25.95;41.08
2785;BME280;57944;48.722;9.316;2024-03-22T08:59:41;98451.72;;;25.78;39.40
2785;BME280;57944;48.722;9.316;2024-03-22T09:02:08;98452.72;;;25.34;40.15
2785;BME280;57944;48.722;9.316;2024-03-22T09:04:35;98450.50;;;24.53;41.97
2785;BME280;57944;48.722;9.316;2024-03-22T09:07:02;98453.78;;;24.69;42.42
2785;BME280;57944;48.722;9.316;2024-03-22T09:09:28;98450.88;;;24.26;43.10
2785;BME280;57944;48.722;9.316;2024-03-22T09:11:58;98447.50;;;23.66;43.46
2785;BME280;57944;48.722;9.316;2024-03-22T09:14:25;98445.53;;;22.91;44.21
2785;BME280;57944;48.722;9.316;2024-03-22T09:16:52;98444.81;;;21.97;47.11
2785;BME280;57944;48.722;9.316;2024-03-22T09:19:19;98438.13;;;21.11;47.87
2785;BME280;57944;48.722;9.316;2024-03-22T09:21:46;98433.53;;;20.54;50.50
2785;BME280;57944;48.722;9.316;2024-03-22T09:24:12;98437.75;;;20.38;51.12
2785;BME280;57944;48.722;9.316;2024-03-22T09:26:39;98427.22;;;20.50;52.17
2785;BME280;57944;48.722;9.316;2024-03-22T09:29:09;98426.34;;;20.93;50.32
2785;BME280;57944;48.722;9.316;2024-03-22T09:31:36;98430.72;;;21.30;49.43
2785;BME280;57944;48.722;9.316;2024-03-22T09:34:03;98424.22;;;21.70;48.69
2785;BME280;57944;48.722;9.316;2024-03-22T09:36:29;98416.66;;;22.26;47.21
2785;BME280;57944;48.722;9.316;2024-03-22T09:38:57;98406.00;;;22.89;46.70
2785;BME280;57944;48.722;9.316;2024-03-22T09:41:25;98410.41;;;23.35;45.13
2785;BME280;57944;48.722;9.316;2024-03-22T09:43:52;98414.56;;;23.36;45.58
2785;BME280;57944;48.722;9.316;2024-03-22T09:46:23;98404.81;;;23.62;44.84
2785;BME280;57944;48.722;9.316;2024-03-22T09:48:53;98395.75;;;24.53;43.12
2785;BME280;57944;48.722;9.316;2024-03-22T09:51:20;98402.34;;;24.46;43.05
2785;BME280;57944;48.722;9.316;2024-03-22T09:53:49;98390.91;;;24.37;41.97
2785;BME280;57944;48.722;9.316;2024-03-22T09:56:16;98386.44;;;24.77;42.15
2785;BME280;57944;48.722;9.316;2024-03-22T09:58:45;98380.84;;;24.93;42.12
2785;BME280;57944;48.722;9.316;2024-03-22T10:01:12;98381.44;;;25.09;40.25
2785;BME280;57944;48.722;9.316;2024-03-22T10:03:42;98367.31;;;25.39;40.26
2785;BME280;57944;48.722;9.316;2024-03-22T10:06:10;98369.78;;;24.78;41.34
2785;BME280;57944;48.722;9.316;2024-03-22T10:08:38;98358.97;;;24.60;40.90
2785;BME280;57944;48.722;9.316;2024-03-22T10:11:05;98356.63;;;25.17;40.20
2785;BME280;57944;48.722;9.316;2024-03-22T10:13:31;98357.06;;;26.24;39.51
2785;BME280;57944;48.722;9.316;2024-03-22T10:15:58;98353.88;;;25.51;38.66
2785;BME280;57944;48.722;9.316;2024-03-22T10:18:26;98350.03;;;25.25;38.50
2785;BME280;57944;48.722;9.316;2024-03-22T10:21:05;98345.00;;;24.46;39.44
2785;BME280;57944;48.722;9.316;2024-03-22T10:23:32;98346.53;;;25.53;38.97
2785;BME280;57944;48.722;9.316;2024-03-22T10:26:00;98332.34;;;26.95;36.49
2785;BME280;57944;48.722;9.316;2024-03-22T10:28:27;98325.00;;;26.84;36.54
2785;BME280;57944;48.722;9.316;2024-03-22T10:30:54;98327.06;;;25.64;37.10
2785;BME280;57944;48.722;9.316;2024-03-22T10:33:22;98315.34;;;24.71;38.56
2785;BME280;57944;48.722;9.316;2024-03-22T10:35:51;98330.75;;;23.99;40.18
2785;BME280;57944;48.722;9.316;2024-03-22T10:38:22;98320.25;;;24.09;40.12
2785;BME280;57944;48.722;9.316;2024-03-22T10:40:49;98317.56;;;24.24;39.73
2785;BME280;57944;48.722;9.316;2024-03-22T10:43:16;98306.22;;;24.39;38.71
2785;BME280;57944;48.722;9.316;2024-03-22T10:45:43;98303.66;;;24.00;39.67
2785;BME280;57944;48.722;9.316;2024-03-22T10:48:18;98307.03;;;23.51;40.51
2785;BME280;57944;48.722;9.316;2024-03-22T10:50:46;98295.72;;;24.15;39.35
2785;BME280;57944;48.722;9.316;2024-03-22T10:53:17;98292.91;;;24.99;37.58
2785;BME280;57944;48.722;9.316;2024-03-22T10:55:49;98285.25;;;25.89;37.36
2785;BME280;57944;48.722;9.316;2024-03-22T10:58:18;98285.28;;;26.95;35.39
2785;BME280;57944;48.722;9.316;2024-03-22T11:00:47;98280.56;;;27.48;34.19
2785;BME280;57944;48.722;9.316;2024-03-22T11:03:20;98273.44;;;26.24;35.12
2785;BME280;57944;48.722;9.316;2024-03-22T11:05:50;98273.22;;;26.06;35.57
2785;BME280;57944;48.722;9.316;2024-03-22T11:08:24;98274.72;;;25.13;36.46
2785;BME280;57944;48.722;9.316;2024-03-22T11:10:56;98265.25;;;25.22;36.41
2785;BME280;57944;48.722;9.316;2024-03-22T11:13:23;98270.25;;;26.27;34.50
2785;BME280;57944;48.722;9.316;2024-03-22T11:15:50;98260.66;;;26.96;33.90
2785;BME280;57944;48.722;9.316;2024-03-22T11:18:18;98247.53;;;27.38;33.53
2785;BME280;57944;48.722;9.316;2024-03-22T11:20:45;98248.06;;;28.16;32.36
2785;BME280;57944;48.722;9.316;2024-03-22T11:23:12;98248.94;;;29.23;30.27
2785;BME280;57944;48.722;9.316;2024-03-22T11:25:39;98243.22;;;29.90;28.98
2785;BME280;57944;48.722;9.316;2024-03-22T11:28:09;98243.34;;;30.88;26.85
2785;BME280;57944;48.722;9.316;2024-03-22T11:30:36;98239.69;;;30.33;29.17
2785;BME280;57944;48.722;9.316;2024-03-22T11:33:03;98230.31;;;30.23;28.05
2785;BME280;57944;48.722;9.316;2024-03-22T11:35:31;98228.88;;;29.61;28.23
2785;BME280;57944;48.722;9.316;2024-03-22T11:37:58;98218.75;;;28.94;28.99
2785;BME280;57944;48.722;9.316;2024-03-22T11:40:26;98213.84;;;27.23;31.78
2785;BME280;57944;48.722;9.316;2024-03-22T11:42:55;98206.28;;;26.11;32.71
2785;BME280;57944;48.722;9.316;2024-03-22T11:45:26;98201.19;;;24.92;34.21
2785;BME280;57944;48.722;9.316;2024-03-22T11:47:54;98196.09;;;25.95;33.12
2785;BME280;57944;48.722;9.316;2024-03-22T11:50:21;98196.25;;;26.32;32.92
2785;BME280;57944;48.722;9.316;2024-03-22T11:52:48;98190.41;;;27.17;31.93
2785;BME280;57944;48.722;9.316;2024-03-22T11:55:15;98191.22;;;28.17;30.96
2785;BME280;57944;48.722;9.316;2024-03-22T11:57:48;98186.03;;;29.00;29.25
2785;BME280;57944;48.722;9.316;2024-03-22T12:00:18;98183.75;;;29.51;28.87
2785;BME280;57944;48.722;9.316;2024-03-22T12:02:49;98178.66;;;29.54;28.76
2785;BME280;57944;48.722;9.316;2024-03-22T12:05:17;98172.31;;;29.73;27.92
2785;BME280;57944;48.722;9.316;2024-03-22T12:07:45;98174.06;;;30.45;26.65
2785;BME280;57944;48.722;9.316;2024-03-22T12:10:12;98168.00;;;29.16;27.92
2785;BME280;57944;48.722;9.316;2024-03-22T12:12:40;98163.09;;;29.14;28.94
2785;BME280;57944;48.722;9.316;2024-03-22T12:15:07;98155.03;;;29.20;28.34
2785;BME280;57944;48.722;9.316;2024-03-22T12:17:34;98152.25;;;29.25;28.29
2785;BME280;57944;48.722;9.316;2024-03-22T12:20:05;98147.56;;;29.74;27.60
2785;BME280;57944;48.722;9.316;2024-03-22T12:22:32;98147.28;;;28.88;28.32
2785;BME280;57944;48.722;9.316;2024-03-22T12:24:59;98133.88;;;27.30;29.95
2785;BME280;57944;48.722;9.316;2024-03-22T12:27:27;98134.13;;;27.51;30.39
2785;BME280;57944;48.722;9.316;2024-03-22T12:29:54;98123.19;;;28.03;29.35
2785;BME280;57944;48.722;9.316;2024-03-22T12:32:21;98117.19;;;28.86;28.23
2785;BME280;57944;48.722;9.316;2024-03-22T12:34:48;98100.91;;;29.71;27.39
2785;BME280;57944;48.722;9.316;2024-03-22T12:37:17;98106.25;;;29.18;27.68
2785;BME280;57944;48.722;9.316;2024-03-22T12:39:44;98102.34;;;28.55;28.25
2785;BME280;57944;48.722;9.316;2024-03-22T12:42:11;98089.91;;;27.05;30.21
2785;BME280;57944;48.722;9.316;2024-03-22T12:44:38;98092.28;;;26.42;32.08
2785;BME280;57944;48.722;9.316;2024-03-22T12:47:05;98096.69;;;26.83;31.26
2785;BME280;57944;48.722;9.316;2024-03-22T12:49:32;98088.09;;;27.50;30.86
2785;BME280;57944;48.722;9.316;2024-03-22T12:51:59;98077.66;;;27.59;29.91
2785;BME280;57944;48.722;9.316;2024-03-22T12:54:29;98079.09;;;26.75;30.74
2785;BME280;57944;48.722;9.316;2024-03-22T12:56:56;98072.25;;;27.10;31.77
2785;BME280;57944;48.722;9.316;2024-03-22T12:59:23;98076.03;;;27.18;30.20
2785;BME280;57944;48.722;9.316;2024-03-22T13:01:50;98062.03;;;27.45;30.82
2785;BME280;57944;48.722;9.316;2024-03-22T13:04:17;98061.50;;;27.34;30.64
2785;BME280;57944;48.722;9.316;2024-03-22T13:06:44;98063.75;;;26.32;31.56
2785;BME280;57944;48.722;9.316;2024-03-22T13:09:14;98042.00;;;26.73;31.38
2785;BME280;57944;48.722;9.316;2024-03-22T13:11:43;98040.16;;;26.73;31.76
2785;BME280;57944;48.722;9.316;2024-03-22T13:14:10;98045.06;;;26.52;32.08
2785;BME280;57944;48.722;9.316;2024-03-22T13:16:37;98035.22;;;26.94;31.28
2785;BME280;57944;48.722;9.316;2024-03-22T13:19:04;98024.66;;;27.22;30.63
2785;BME280;57944;48.722;9.316;2024-03-22T13:21:31;98021.66;;;27.37;30.57
2785;BME280;57944;48.722;9.316;2024-03-22T13:23:58;98018.88;;;26.66;31.43
2785;BME280;57944;48.722;9.316;2024-03-22T13:26:25;98016.38;;;26.61;31.36